Time;durP1;ratioP1;P1;durP2;ratioP2;P2;SDS_P1;SDS_P2;PMS_P1;PMS_P2;Temp;Humidity;BMP_temperature;BMP_pressure;BME280_temperature;BME280_humidity;BME280_pressure;Samples;Min_cycle;Max_cycle;Signal;HPM_P1;HPM_P2
2023/05/15 00:00:56;;;;;;;28.85;19.67;;;11.70;88.00;;;;;;5069857;28;20038;-82
2023/05/15 00:03:21;;;;;;;26.30;21.30;;;11.80;88.20;;;;;;5102436;28;20040;-83
2023/05/15 00:05:47;;;;;;;26.40;19.23;;;11.70;88.10;;;;;;5085239;28;20109;-82
2023/05/15 00:08:13;;;;;;;26.15;19.67;;;11.70;88.20;;;;;;5084821;28;20028;-81
2023/05/15 00:10:39;;;;;;;23.42;18.88;;;11.80;88.10;;;;;;5084983;28;20024;-87
2023/05/15 00:13:04;;;;;;;31.20;21.75;;;11.80;88.10;;;;;;5085269;28;20054;-85
2023/05/15 00:15:30;;;;;;;29.00;21.90;;;11.70;88.20;;;;;;5082321;28;20040;-88
2023/05/15 00:17:56;;;;;;;29.25;21.83;;;11.70;88.20;;;;;;5042156;28;20541;-87
2023/05/15 00:20:21;;;;;;;23.92;19.20;;;11.70;88.30;;;;;;5024335;28;20135;-83
2023/05/15 00:22:48;;;;;;;25.35;19.50;;;11.70;88.30;;;;;;5024748;28;20036;-83
2023/05/15 00:25:14;;;;;;;25.27;21.00;;;11.70;88.20;;;;;;5058086;28;20373;-85
2023/05/15 00:27:39;;;;;;;23.60;19.95;;;11.60;88.30;;;;;;5057790;28;20050;-85
2023/05/15 00:30:06;;;;;;;30.48;22.33;;;11.60;88.30;;;;;;5024386;28;20040;-85
2023/05/15 00:32:31;;;;;;;24.00;20.83;;;11.60;88.40;;;;;;5040928;28;20341;-88
2023/05/15 00:34:57;;;;;;;30.30;21.92;;;11.60;88.30;;;;;;5057491;28;20101;-87
2023/05/15 00:37:23;;;;;;;28.27;21.25;;;11.60;88.20;;;;;;5040799;28;20047;-85
2023/05/15 00:39:49;;;;;;;25.63;20.60;;;11.60;88.20;;;;;;5041086;28;20098;-82
2023/05/15 00:42:16;;;;;;;25.08;20.77;;;11.60;88.30;;;;;;5073919;28;20044;-85
2023/05/15 00:44:44;;;;;;;28.08;23.25;;;11.60;88.20;;;;;;5040589;28;20052;-88
2023/05/15 00:47:10;;;;;;;29.40;22.30;;;11.50;88.20;;;;;;5057286;28;20041;-86
2023/05/15 00:49:37;;;;;;;30.60;22.63;;;11.50;88.20;;;;;;5057491;28;20043;-87
2023/05/15 00:52:04;;;;;;;26.75;21.15;;;11.40;88.10;;;;;;5073066;28;20040;-84
2023/05/15 00:54:30;;;;;;;26.40;20.58;;;11.40;88.10;;;;;;5024219;28;20472;-88
2023/05/15 00:56:57;;;;;;;28.20;22.42;;;11.50;88.10;;;;;;5040323;28;20039;-83
2023/05/15 00:59:26;;;;;;;25.95;21.58;;;11.40;88.10;;;;;;5040376;28;20128;-83
2023/05/15 01:01:52;;;;;;;30.05;21.77;;;11.40;88.00;;;;;;5056775;28;20076;-83
2023/05/15 01:04:18;;;;;;;28.30;24.23;;;11.30;88.10;;;;;;5040248;28;20105;-85
2023/05/15 01:06:44;;;;;;;31.23;24.00;;;11.30;88.20;;;;;;5056766;28;20083;-87
2023/05/15 01:09:11;;;;;;;29.90;23.90;;;11.20;88.10;;;;;;5056923;28;20037;-85
2023/05/15 01:11:38;;;;;;;32.17;24.35;;;11.10;88.00;;;;;;5040125;28;20098;-88
2023/05/15 01:14:06;;;;;;;29.67;23.35;;;11.10;88.10;;;;;;5057149;28;20037;-85
2023/05/15 01:16:33;;;;;;;28.75;22.85;;;11.00;88.30;;;;;;5040569;28;20548;-86
2023/05/15 01:18:58;;;;;;;30.27;23.27;;;11.00;88.30;;;;;;5056586;28;20041;-85
2023/05/15 01:21:43;;;;;;;29.85;23.55;;;11.00;88.30;;;;;;5056920;28;20041;-86
2023/05/15 01:24:27;;;;;;;27.80;21.90;;;11.00;88.40;;;;;;5056934;28;20131;-88
2023/05/15 01:27:12;;;;;;;32.08;22.67;;;11.00;88.20;;;;;;5056826;28;20139;-87
2023/05/15 01:29:59;;;;;;;27.38;21.15;;;11.00;88.30;;;;;;5073436;28;20048;-82
2023/05/15 01:33:03;;;;;;;30.55;23.40;;;10.80;88.40;;;;;;5056723;28;20037;-85
2023/05/15 01:35:28;;;;;;;28.67;20.20;;;10.80;88.40;;;;;;5056870;28;20043;-86
2023/05/15 01:38:14;;;;;;;29.63;22.17;;;10.80;88.70;;;;;;5056525;28;20037;-87
2023/05/15 01:40:43;;;;;;;32.03;24.63;;;10.80;88.50;;;;;;5056202;28;20036;-88
2023/05/15 01:43:14;;;;;;;27.10;21.65;;;10.80;88.60;;;;;;5056567;28;20037;-85
2023/05/15 01:45:42;;;;;;;33.30;24.63;;;10.80;88.80;;;;;;5056311;28;20032;-87
2023/05/15 01:48:12;;;;;;;40.20;24.10;;;10.70;88.90;;;;;;5056828;28;20043;-84
2023/05/15 01:50:39;;;;;;;34.10;23.30;;;10.60;89.00;;;;;;5039867;28;20059;-86
2023/05/15 01:53:07;;;;;;;37.55;26.42;;;10.70;89.20;;;;;;5023528;28;20036;-83
2023/05/15 01:55:34;;;;;;;34.83;24.90;;;10.70;89.30;;;;;;5056412;28;20046;-84
2023/05/15 01:58:01;;;;;;;39.17;24.10;;;10.80;89.40;;;;;;5056407;28;20450;-83
2023/05/15 02:00:27;;;;;;;36.50;23.80;;;10.80;89.60;;;;;;5039762;28;20102;-84
2023/05/15 02:02:53;;;;;;;38.47;23.73;;;10.80;89.70;;;;;;5023333;28;20144;-84
2023/05/15 02:05:20;;;;;;;31.33;21.95;;;10.90;89.80;;;;;;5059368;28;20055;-82
2023/05/15 02:07:47;;;;;;;36.08;25.02;;;10.90;89.90;;;;;;5043110;28;20404;-84
2023/05/15 02:10:15;;;;;;;29.63;23.00;;;11.00;90.00;;;;;;5059709;28;20123;-85
2023/05/15 02:12:41;;;;;;;28.13;20.05;;;11.00;90.00;;;;;;5043292;28;20082;-84
2023/05/15 02:15:10;;;;;;;32.10;21.80;;;11.00;90.10;;;;;;5059907;28;20055;-85
2023/05/15 02:17:36;;;;;;;32.75;22.27;;;11.00;90.10;;;;;;5059789;28;20051;-90
2023/05/15 02:20:04;;;;;;;36.78;23.30;;;11.00;90.10;;;;;;5059705;28;20073;-83
2023/05/15 02:22:31;;;;;;;32.63;22.83;;;11.00;90.10;;;;;;5043413;28;20044;-86
2023/05/15 02:24:56;;;;;;;29.70;21.50;;;11.00;90.10;;;;;;5059532;28;20396;-81
2023/05/15 02:27:26;;;;;;;29.75;21.17;;;11.10;90.10;;;;;;5043260;28;20045;-85
2023/05/15 02:30:06;;;;;;;28.00;20.55;;;11.10;90.20;;;;;;5076152;28;20047;-84
2023/05/15 02:33:18;;;;;;;26.42;20.13;;;11.10;90.20;;;;;;5059293;28;20094;-85
2023/05/15 02:35:56;;;;;;;25.83;18.90;;;11.10;90.10;;;;;;5058828;28;20082;-88
2023/05/15 02:38:32;;;;;;;26.20;19.80;;;11.00;90.10;;;;;;5059184;28;20139;-87
2023/05/15 02:41:00;;;;;;;25.10;19.98;;;11.00;90.10;;;;;;5059428;28;20045;-82
2023/05/15 02:43:27;;;;;;;25.92;21.48;;;11.00;90.10;;;;;;5042670;28;20043;-82
2023/05/15 02:45:55;;;;;;;26.35;20.65;;;10.90;90.00;;;;;;5042508;28;20040;-85
2023/05/15 02:48:21;;;;;;;30.02;21.67;;;10.80;90.00;;;;;;5058983;28;20059;-83
2023/05/15 02:50:47;;;;;;;25.58;21.00;;;10.80;90.10;;;;;;5042428;28;20040;-84
2023/05/15 02:53:14;;;;;;;28.05;18.38;;;10.80;90.10;;;;;;5059102;28;20445;-85
2023/05/15 02:55:40;;;;;;;27.65;20.92;;;10.80;90.10;;;;;;5026469;28;20396;-82
2023/05/15 02:58:05;;;;;;;28.20;21.50;;;10.80;90.10;;;;;;5058633;28;20040;-83
2023/05/15 03:00:31;;;;;;;25.10;19.88;;;10.80;90.10;;;;;;5042018;28;20040;-81
2023/05/15 03:02:57;;;;;;;27.77;20.80;;;10.70;90.10;;;;;;5042116;28;20106;-85
2023/05/15 03:05:23;;;;;;;27.40;20.30;;;10.70;90.10;;;;;;5058749;28;20056;-80
2023/05/15 03:07:48;;;;;;;24.92;20.73;;;10.60;90.10;;;;;;5026227;28;20036;-85
2023/05/15 03:10:14;;;;;;;29.90;20.92;;;10.60;90.10;;;;;;5025940;28;20543;-84
2023/05/15 03:12:40;;;;;;;31.67;22.35;;;10.60;90.00;;;;;;5059011;28;20451;-87
2023/05/15 03:15:06;;;;;;;30.25;23.13;;;10.60;90.00;;;;;;5041873;28;20078;-85
2023/05/15 03:17:32;;;;;;;34.83;24.85;;;10.50;90.00;;;;;;5058571;28;20051;-84
2023/05/15 03:19:58;;;;;;;29.38;22.25;;;10.50;90.10;;;;;;5042130;28;20040;-84
2023/05/15 03:22:24;;;;;;;32.70;22.80;;;10.50;90.10;;;;;;5025468;28;20093;-84
2023/05/15 03:24:49;;;;;;;30.73;22.90;;;10.50;90.10;;;;;;5075427;28;20048;-84
2023/05/15 03:27:15;;;;;;;27.90;21.80;;;10.50;90.10;;;;;;5042209;28;20066;-87
2023/05/15 03:29:41;;;;;;;30.80;22.77;;;10.50;90.10;;;;;;5041652;28;20499;-84
2023/05/15 03:32:07;;;;;;;27.25;21.02;;;10.50;90.10;;;;;;5058186;28;20051;-89
2023/05/15 03:34:36;;;;;;;29.00;22.80;;;10.50;90.10;;;;;;5074870;28;20040;-85
2023/05/15 03:37:02;;;;;;;29.88;22.00;;;10.50;90.10;;;;;;5041611;28;20048;-87
2023/05/15 03:39:50;;;;;;;28.80;22.73;;;10.40;90.20;;;;;;5058057;28;20068;-89
2023/05/15 03:42:45;;;;;;;;;;;;;;;;;;;;;
2023/05/15 03:45:24;;;;;;;;;;;;;;;;;;;;;
2023/05/15 03:47:50;;;;;;;29.17;21.42;;;10.50;90.10;;;;;;5074961;28;20123;-84
2023/05/15 03:50:21;;;;;;;28.90;20.38;;;10.50;90.20;;;;;;5058121;28;20479;-82
2023/05/15 03:52:46;;;;;;;26.90;20.00;;;10.50;90.20;;;;;;5042326;28;20537;-86
2023/05/15 03:55:12;;;;;;;27.92;22.25;;;10.50;90.20;;;;;;5058118;28;20048;-86
2023/05/15 03:57:41;;;;;;;26.80;20.10;;;10.50;90.20;;;;;;5057592;28;20052;-82
2023/05/15 04:00:13;;;;;;;27.50;20.13;;;10.50;90.20;;;;;;5041468;28;20041;-88
2023/05/15 04:02:41;;;;;;;29.75;20.70;;;10.50;90.10;;;;;;5041643;28;20135;-85
2023/05/15 04:05:08;;;;;;;31.02;21.63;;;10.50;90.10;;;;;;5041053;28;20045;-84
2023/05/15 04:07:36;;;;;;;29.95;21.13;;;10.40;90.20;;;;;;5057645;28;20040;-86
2023/05/15 04:10:05;;;;;;;31.15;23.83;;;10.40;90.20;;;;;;5074137;28;20098;-83
2023/05/15 04:12:33;;;;;;;30.63;22.95;;;10.40;90.30;;;;;;5057143;28;20040;-85
2023/05/15 04:15:17;;;;;;;30.58;23.48;;;10.40;90.30;;;;;;5069847;28;20039;-86
2023/05/15 04:17:45;;;;;;;30.98;22.77;;;10.40;90.40;;;;;;5077367;28;20035;-84
2023/05/15 04:20:13;;;;;;;29.70;22.38;;;10.40;90.30;;;;;;5060944;28;20040;-85
2023/05/15 04:22:38;;;;;;;31.02;22.17;;;10.40;90.30;;;;;;5078073;28;20066;-85
2023/05/15 04:25:05;;;;;;;35.08;25.13;;;10.40;90.30;;;;;;5060727;28;20492;-84
2023/05/15 04:27:30;;;;;;;36.05;24.70;;;10.40;90.30;;;;;;5076435;28;20036;-86
2023/05/15 04:29:56;;;;;;;31.50;23.77;;;10.40;90.30;;;;;;5093879;28;20043;-86
2023/05/15 04:32:22;;;;;;;32.05;23.95;;;10.40;90.40;;;;;;5094157;28;20065;-83
2023/05/15 04:34:48;;;;;;;33.20;23.05;;;10.50;90.50;;;;;;5093937;28;20040;-86
2023/05/15 04:37:14;;;;;;;33.00;23.67;;;10.50;90.40;;;;;;5093857;28;20093;-86
2023/05/15 04:39:39;;;;;;;31.10;23.95;;;10.50;90.50;;;;;;5094397;28;20376;-83
2023/05/15 04:42:05;;;;;;;28.45;20.80;;;10.50;90.40;;;;;;5060427;28;20044;-85
2023/05/15 04:44:32;;;;;;;32.72;23.75;;;10.50;90.30;;;;;;5060282;28;20040;-80
2023/05/15 04:46:58;;;;;;;26.73;19.63;;;10.60;90.30;;;;;;5076954;28;20695;-86
2023/05/15 04:49:23;;;;;;;32.67;23.92;;;10.60;90.30;;;;;;5059989;28;20066;-82
2023/05/15 04:51:52;;;;;;;30.05;21.38;;;10.60;90.20;;;;;;5076745;28;20036;-82
2023/05/15 04:54:18;;;;;;;28.77;20.80;;;10.60;90.20;;;;;;5059835;28;20039;-88
2023/05/15 04:56:44;;;;;;;29.90;22.77;;;10.60;90.10;;;;;;5076564;28;20040;-86
2023/05/15 04:59:12;;;;;;;29.10;22.17;;;10.60;90.20;;;;;;5076901;28;20046;-84
2023/05/15 05:01:43;;;;;;;36.00;24.38;;;10.60;90.20;;;;;;5059973;28;20492;-88
2023/05/15 05:04:12;;;;;;;33.20;23.75;;;10.60;90.20;;;;;;5077530;28;20063;-84
2023/05/15 05:06:37;;;;;;;31.63;23.70;;;10.60;90.20;;;;;;5093522;28;20396;-86
2023/05/15 05:09:03;;;;;;;32.67;24.42;;;10.70;90.30;;;;;;5076482;28;20043;-84
2023/05/15 05:11:29;;;;;;;27.75;20.45;;;10.80;90.30;;;;;;5076755;28;20044;-89
2023/05/15 05:13:58;;;;;;;32.33;23.92;;;10.80;90.20;;;;;;5060080;28;20415;-82
2023/05/15 05:16:30;;;;;;;23.30;19.63;;;10.90;90.20;;;;;;5060056;28;20078;-82
2023/05/15 05:18:55;;;;;;;32.08;23.20;;;11.00;90.20;;;;;;5076515;28;20510;-83
2023/05/15 05:21:21;;;;;;;33.78;23.65;;;11.00;90.20;;;;;;5059678;28;20130;-84
2023/05/15 05:24:17;;;;;;;27.75;22.13;;;11.10;90.40;;;;;;5042985;28;20050;-86
2023/05/15 05:27:56;;;;;;;26.70;20.05;;;11.20;90.10;;;;;;5069658;28;20060;-87
2023/05/15 05:30:28;;;;;;;29.38;20.55;;;11.30;90.20;;;;;;5039567;28;20048;-85
2023/05/15 05:33:33;;;;;;;27.05;21.02;;;11.30;90.10;;;;;;5038951;28;20053;-89
2023/05/15 05:43:09;;;;;;;24.25;18.88;;;11.50;89.80;;;;;;4960490;28;20043;-86
2023/05/15 05:45:35;;;;;;;27.48;20.23;;;11.60;89.60;;;;;;5042472;28;20102;-86
2023/05/15 05:48:01;;;;;;;25.55;20.95;;;11.60;89.50;;;;;;5042286;28;20080;-85
2023/05/15 05:50:27;;;;;;;24.45;20.20;;;11.60;89.40;;;;;;5012997;28;20076;-83
2023/05/15 05:52:52;;;;;;;26.10;18.65;;;11.70;89.30;;;;;;5022890;28;20068;-89
2023/05/15 05:55:18;;;;;;;20.73;17.67;;;11.80;89.30;;;;;;5023021;28;20083;-85
2023/05/15 05:57:44;;;;;;;20.05;15.88;;;11.80;89.10;;;;;;5018919;28;20132;-86
2023/05/15 06:00:11;;;;;;;22.60;17.52;;;11.80;89.00;;;;;;5030950;28;20043;-84
2023/05/15 06:02:37;;;;;;;23.52;18.40;;;11.90;88.80;;;;;;5019952;28;20057;-84
2023/05/15 06:05:03;;;;;;;22.63;19.38;;;11.90;88.70;;;;;;5044848;28;20139;-83
2023/05/15 06:07:29;;;;;;;25.45;20.38;;;12.00;88.70;;;;;;5025159;28;20459;-82
2023/05/15 06:09:55;;;;;;;25.45;20.77;;;12.00;88.60;;;;;;5027374;28;20052;-83
2023/05/15 06:12:21;;;;;;;26.80;22.83;;;12.00;88.50;;;;;;5060647;28;20043;-83
2023/05/15 06:14:47;;;;;;;26.67;22.58;;;12.00;88.40;;;;;;5057450;28;20765;-85
2023/05/15 06:17:16;;;;;;;23.73;21.10;;;12.10;88.40;;;;;;5052471;28;20040;-85
2023/05/15 06:19:44;;;;;;;26.08;21.50;;;12.10;88.40;;;;;;5066566;28;20045;-85
2023/05/15 06:22:10;;;;;;;20.92;17.15;;;12.10;88.30;;;;;;5062656;28;20058;-84
2023/05/15 06:24:35;;;;;;;23.77;19.67;;;12.10;88.20;;;;;;5040975;28;20131;-83
2023/05/15 06:27:07;;;;;;;20.73;15.88;;;12.10;87.90;;;;;;5064212;28;20089;-81
2023/05/15 06:29:34;;;;;;;22.67;17.75;;;12.10;87.30;;;;;;5047062;28;20083;-82
2023/05/15 06:32:23;;;;;;;17.00;15.10;;;12.00;86.90;;;;;;5051344;28;20037;-81
2023/05/15 06:34:51;;;;;;;21.55;16.50;;;12.00;86.90;;;;;;5061089;28;20119;-83
2023/05/15 06:37:17;;;;;;;18.75;14.70;;;12.00;86.70;;;;;;5048979;28;20040;-82
2023/05/15 06:39:43;;;;;;;17.15;14.65;;;12.10;86.60;;;;;;5030027;28;20048;-82
2023/05/15 06:42:08;;;;;;;20.63;15.27;;;12.20;86.40;;;;;;5026974;28;20044;-82
2023/05/15 06:44:34;;;;;;;17.35;14.50;;;12.20;86.30;;;;;;5059008;28;20043;-83
2023/05/15 06:47:00;;;;;;;15.68;14.00;;;12.30;86.10;;;;;;5070315;28;20041;-80
2023/05/15 06:49:26;;;;;;;16.13;14.40;;;12.30;85.90;;;;;;5071657;28;20055;-81
2023/05/15 06:51:53;;;;;;;16.10;14.38;;;12.20;85.80;;;;;;5064408;28;20044;-82
2023/05/15 06:54:20;;;;;;;16.60;14.90;;;12.20;85.80;;;;;;5066713;28;20373;-81
2023/05/15 06:56:46;;;;;;;21.23;14.65;;;12.20;85.20;;;;;;5066629;28;20044;-79
2023/05/15 06:59:11;;;;;;;17.92;16.02;;;12.20;85.00;;;;;;5060934;28;20047;-81
2023/05/15 07:01:37;;;;;;;21.70;17.77;;;12.20;84.70;;;;;;5052729;28;20422;-81
2023/05/15 07:04:03;;;;;;;19.05;16.98;;;12.20;84.90;;;;;;5083453;28;20389;-79
2023/05/15 07:06:30;;;;;;;18.80;16.45;;;12.20;84.90;;;;;;5056494;28;20670;-80
2023/05/15 07:08:57;;;;;;;18.67;16.67;;;12.30;84.80;;;;;;5068124;28;20127;-80
2023/05/15 07:11:23;;;;;;;17.98;16.05;;;12.30;84.80;;;;;;5067219;28;20087;-79
2023/05/15 07:13:49;;;;;;;15.68;12.95;;;12.30;84.80;;;;;;5063803;28;20063;-80
2023/05/15 07:16:14;;;;;;;18.60;16.58;;;12.50;84.50;;;;;;5087086;28;20048;-78
2023/05/15 07:18:40;;;;;;;18.00;15.90;;;12.50;84.30;;;;;;5048462;28;20050;-79
2023/05/15 07:21:06;;;;;;;18.02;16.02;;;12.50;84.30;;;;;;5082287;28;20052;-81
2023/05/15 07:23:31;;;;;;;17.90;15.98;;;12.50;83.90;;;;;;5053838;28;20174;-80
2023/05/15 07:25:57;;;;;;;18.17;14.65;;;12.50;83.80;;;;;;5055830;28;20559;-82
2023/05/15 07:28:23;;;;;;;17.98;16.05;;;12.50;83.60;;;;;;5048906;28;20036;-81
2023/05/15 07:30:49;;;;;;;18.98;14.57;;;12.60;83.30;;;;;;5060672;28;20115;-79
2023/05/15 07:33:15;;;;;;;17.08;14.73;;;12.70;83.30;;;;;;5064193;28;20040;-80
2023/05/15 07:35:40;;;;;;;16.67;14.93;;;12.80;83.20;;;;;;5037227;28;20055;-80
2023/05/15 07:38:07;;;;;;;20.85;15.90;;;12.90;83.10;;;;;;5041653;28;21246;-80
2023/05/15 07:40:33;;;;;;;17.17;15.38;;;13.00;82.70;;;;;;5069597;28;20045;-79
2023/05/15 07:42:59;;;;;;;18.40;16.50;;;13.10;82.50;;;;;;5054351;28;20043;-80
2023/05/15 07:45:24;;;;;;;19.88;16.50;;;13.20;82.60;;;;;;5040615;28;20040;-81
2023/05/15 07:47:50;;;;;;;21.88;15.75;;;13.30;82.30;;;;;;5037236;28;20063;-82
2023/05/15 07:50:16;;;;;;;17.05;14.43;;;13.40;81.90;;;;;;5060843;28;20032;-81
2023/05/15 07:52:43;;;;;;;17.20;14.95;;;13.50;81.60;;;;;;5077263;28;20046;-83
2023/05/15 07:55:10;;;;;;;16.27;14.48;;;13.60;81.60;;;;;;5060588;28;20133;-80
2023/05/15 07:57:36;;;;;;;15.40;13.73;;;13.70;81.10;;;;;;5094607;28;20118;-80
2023/05/15 08:00:08;;;;;;;17.13;13.48;;;13.80;80.80;;;;;;5077937;28;20040;-82
2023/05/15 08:02:34;;;;;;;14.60;13.10;;;14.00;80.40;;;;;;5077699;28;20060;-83
2023/05/15 08:05:00;;;;;;;16.27;12.95;;;14.10;80.00;;;;;;5077278;28;20450;-80
2023/05/15 08:07:26;;;;;;;13.77;12.38;;;14.30;79.90;;;;;;5076756;28;20047;-79
2023/05/15 08:09:51;;;;;;;14.95;13.23;;;14.50;79.60;;;;;;5077031;28;20051;-80
2023/05/15 08:12:21;;;;;;;15.32;13.52;;;14.50;79.20;;;;;;5093975;28;20149;-80
2023/05/15 08:14:49;;;;;;;15.57;12.48;;;14.60;79.20;;;;;;5093962;28;20089;-79
2023/05/15 08:17:15;;;;;;;15.27;12.20;;;14.70;78.90;;;;;;5076997;28;20131;-79
2023/05/15 08:19:41;;;;;;;14.82;13.02;;;14.60;78.40;;;;;;5060215;28;20040;-79
2023/05/15 08:22:06;;;;;;;12.45;11.13;;;14.60;77.50;;;;;;5076613;28;20036;-79
2023/05/15 08:24:32;;;;;;;14.80;13.20;;;14.60;77.10;;;;;;5055395;28;20047;-81
2023/05/15 08:26:59;;;;;;;15.02;13.18;;;14.50;77.70;;;;;;5056491;28;20477;-78
2023/05/15 08:29:24;;;;;;;12.55;11.13;;;14.50;77.80;;;;;;5056748;28;20051;-80
2023/05/15 08:31:50;;;;;;;13.57;12.18;;;14.60;77.70;;;;;;5023610;28;20037;-80
2023/05/15 08:34:16;;;;;;;16.15;13.90;;;14.60;77.50;;;;;;5039767;28;20408;-83
2023/05/15 08:36:43;;;;;;;13.20;11.85;;;14.50;77.20;;;;;;5056910;28;20046;-79
2023/05/15 08:39:09;;;;;;;13.07;11.25;;;14.60;77.40;;;;;;5040179;28;20481;-80
2023/05/15 08:42:02;;;;;;;11.65;10.45;;;14.60;77.40;;;;;;5039840;28;20048;-79
2023/05/15 08:44:28;;;;;;;14.75;11.00;;;14.70;77.30;;;;;;5056319;28;20508;-81
2023/05/15 08:46:54;;;;;;;11.90;10.68;;;14.80;77.30;;;;;;5056094;28;20044;-80
2023/05/15 08:49:34;;;;;;;13.63;11.35;;;15.00;76.80;;;;;;5056416;28;20572;-80
2023/05/15 08:52:00;;;;;;;13.40;10.40;;;15.10;76.20;;;;;;5056271;28;20400;-79
2023/05/15 08:54:27;;;;;;;16.15;11.82;;;15.20;75.90;;;;;;5056314;28;20033;-81
2023/05/15 08:56:53;;;;;;;12.23;10.70;;;15.30;75.80;;;;;;5044442;28;20052;-82
2023/05/15 08:59:19;;;;;;;13.23;11.10;;;15.30;75.80;;;;;;5047785;28;20124;-82
2023/05/15 09:01:44;;;;;;;13.23;11.55;;;15.40;75.70;;;;;;5039664;28;20075;-83
2023/05/15 09:04:10;;;;;;;13.13;10.40;;;15.30;75.60;;;;;;5064830;28;20483;-84
2023/05/15 09:06:37;;;;;;;15.00;11.63;;;15.30;75.60;;;;;;5082836;28;20521;-81
2023/05/15 09:09:13;;;;;;;12.75;11.07;;;15.30;75.60;;;;;;5086768;28;20040;-84
2023/05/15 09:11:43;;;;;;;11.73;10.15;;;15.30;75.20;;;;;;5059354;28;20139;-81
2023/05/15 09:14:09;;;;;;;13.52;11.07;;;15.20;74.30;;;;;;5077109;28;20044;-83
2023/05/15 09:16:36;;;;;;;16.00;12.90;;;15.10;74.90;;;;;;5066527;28;20051;-81
2023/05/15 09:19:02;;;;;;;17.50;12.75;;;14.60;80.60;;;;;;5071092;28;20059;-79
2023/05/15 09:21:32;;;;;;;17.25;13.25;;;13.90;81.50;;;;;;5084741;28;20036;-82
2023/05/15 09:24:21;;;;;;;15.02;12.75;;;13.30;82.40;;;;;;5086523;28;20654;-78
2023/05/15 09:27:01;;;;;;;18.90;14.70;;;13.00;84.70;;;;;;5067957;28;20041;-80
2023/05/15 09:29:28;;;;;;;21.08;17.15;;;12.80;85.30;;;;;;5066562;28;20117;-77
2023/05/15 09:31:55;;;;;;;18.45;16.52;;;12.60;87.10;;;;;;5084336;28;20040;-75
2023/05/15 09:34:42;;;;;;;1.80;1.70;;;12.60;88.50;;;;;;5084465;28;20364;-75
2023/05/15 09:37:28;;;;;;;19.85;17.55;;;12.80;90.40;;;;;;5063698;28;20048;-80
2023/05/15 09:39:54;;;;;;;22.27;17.23;;;12.70;95.50;;;;;;5085454;28;20500;-80
2023/05/15 09:42:23;;;;;;;20.90;16.98;;;12.40;96.90;;;;;;5083956;28;20047;-80
2023/05/15 09:44:49;;;;;;;21.95;17.40;;;12.30;97.40;;;;;;5073510;28;20071;-79
2023/05/15 09:47:16;;;;;;;22.83;18.90;;;12.50;98.50;;;;;;5083994;28;20503;-80
2023/05/15 09:49:45;;;;;;;24.58;19.73;;;12.30;97.40;;;;;;5067941;28;20041;-79
2023/05/15 09:52:11;;;;;;;22.50;20.25;;;12.10;96.60;;;;;;5070779;28;20480;-80
2023/05/15 09:54:37;;;;;;;21.50;19.35;;;12.20;96.70;;;;;;5083559;28;20051;-79
2023/05/15 09:57:10;;;;;;;24.48;19.17;;;12.20;96.90;;;;;;5091462;28;20579;-79
2023/05/15 09:59:43;;;;;;;21.90;18.90;;;12.10;96.60;;;;;;5089948;28;20060;-79
2023/05/15 10:02:22;;;;;;;20.75;18.55;;;12.20;96.20;;;;;;5069818;28;20548;-84
2023/05/15 10:04:54;;;;;;;19.02;16.95;;;12.40;96.90;;;;;;5076763;28;20056;-81
2023/05/15 10:07:31;;;;;;;17.92;15.75;;;12.40;96.50;;;;;;5068222;28;20059;-80
2023/05/15 10:09:57;;;;;;;19.50;16.05;;;12.50;96.60;;;;;;5055841;28;20041;-82
2023/05/15 10:12:23;;;;;;;18.65;15.98;;;12.50;97.00;;;;;;5070014;28;20048;-81
2023/05/15 10:14:50;;;;;;;17.30;14.73;;;12.40;94.20;;;;;;5073054;28;20369;-85
2023/05/15 10:17:18;;;;;;;16.75;14.60;;;12.50;94.30;;;;;;5065486;28;20068;-80
2023/05/15 10:19:46;;;;;;;15.85;13.85;;;12.60;95.00;;;;;;5064568;28;20064;-83
2023/05/15 10:22:14;;;;;;;15.10;13.27;;;12.80;94.50;;;;;;5069916;28;20399;-81
2023/05/15 10:24:42;;;;;;;16.65;13.50;;;13.00;95.20;;;;;;5065984;28;20097;-79
2023/05/15 10:27:09;;;;;;;19.60;13.27;;;13.30;96.80;;;;;;5082301;28;20158;-80
2023/05/15 10:29:36;;;;;;;15.63;13.02;;;13.50;95.30;;;;;;5079792;28;20511;-80
2023/05/15 10:32:03;;;;;;;13.98;12.00;;;13.50;95.40;;;;;;5067704;28;20091;-79
2023/05/15 10:34:31;;;;;;;14.35;12.55;;;13.60;94.90;;;;;;5081542;28;20119;-80
2023/05/15 10:36:57;;;;;;;14.15;12.30;;;13.70;93.50;;;;;;5078858;28;20048;-83
2023/05/15 10:39:26;;;;;;;13.88;11.93;;;13.90;95.20;;;;;;5079436;28;20040;-79
2023/05/15 10:41:53;;;;;;;15.88;14.30;;;13.90;93.90;;;;;;5067737;28;20150;-79
2023/05/15 10:44:20;;;;;;;14.23;11.40;;;13.90;91.40;;;;;;5066025;28;20454;-79
2023/05/15 10:46:47;;;;;;;13.48;10.70;;;14.00;92.70;;;;;;5073333;28;20032;-80
2023/05/15 10:49:13;;;;;;;13.38;11.13;;;14.00;94.00;;;;;;5064722;28;20488;-80
2023/05/15 10:51:41;;;;;;;14.48;11.73;;;14.00;88.60;;;;;;5049668;28;20058;-85
2023/05/15 10:54:08;;;;;;;13.32;11.60;;;14.00;85.90;;;;;;5049742;28;20119;-78
2023/05/15 10:56:37;;;;;;;13.77;11.65;;;14.00;84.80;;;;;;5079472;28;20404;-80
2023/05/15 10:59:09;;;;;;;14.63;11.10;;;13.80;85.30;;;;;;5062412;28;20083;-79
2023/05/15 11:01:36;;;;;;;15.52;12.52;;;13.90;84.80;;;;;;5065910;28;20040;-78
2023/05/15 11:04:22;;;;;;;13.68;11.82;;;14.00;86.30;;;;;;5085635;28;20531;-78
2023/05/15 11:06:49;;;;;;;13.90;11.45;;;13.80;84.30;;;;;;5044130;28;20546;-80
2023/05/15 11:09:23;;;;;;;15.90;11.27;;;13.90;82.90;;;;;;5066095;28;20039;-79
2023/05/15 11:11:54;;;;;;;14.75;11.57;;;14.00;83.80;;;;;;5083550;28;20047;-80
2023/05/15 11:14:24;;;;;;;11.35;10.02;;;14.00;82.60;;;;;;5050955;28;20119;-79
2023/05/15 11:16:53;;;;;;;12.93;11.18;;;14.00;82.20;;;;;;5047174;28;20040;-79
2023/05/15 11:19:28;;;;;;;11.40;10.20;;;14.10;83.30;;;;;;5081504;28;20045;-78
2023/05/15 11:22:15;;;;;;;11.85;10.25;;;14.10;81.10;;;;;;5064194;28;20174;-77
2023/05/15 11:24:51;;;;;;;11.45;10.25;;;14.10;80.70;;;;;;5082363;28;20047;-79
2023/05/15 11:27:27;;;;;;;10.90;9.80;;;14.10;81.40;;;;;;5068217;28;20071;-79
2023/05/15 11:30:06;;;;;;;12.15;10.32;;;14.10;81.00;;;;;;5084029;28;20097;-78
2023/05/15 11:32:52;;;;;;;11.27;10.15;;;14.20;81.80;;;;;;5077707;28;20032;-79
2023/05/15 11:35:36;;;;;;;11.32;10.05;;;14.20;79.40;;;;;;5069760;28;20052;-79
2023/05/15 11:38:08;;;;;;;12.23;10.10;;;14.20;79.20;;;;;;5064150;28;20082;-79
2023/05/15 11:40:48;;;;;;;12.40;11.20;;;14.20;79.00;;;;;;5079751;28;20040;-79
2023/05/15 11:43:24;;;;;;;13.13;11.15;;;14.20;79.30;;;;;;5079767;28;20050;-79
2023/05/15 11:46:06;;;;;;;12.35;11.05;;;14.20;79.40;;;;;;5073738;28;20120;-79
2023/05/15 11:48:34;;;;;;;12.00;10.15;;;14.30;78.90;;;;;;5082483;28;20373;-78
2023/05/15 11:51:04;;;;;;;11.38;10.23;;;14.20;78.80;;;;;;5076091;28;21116;-78
2023/05/15 11:53:32;;;;;;;12.40;11.10;;;14.20;78.80;;;;;;5077446;28;20419;-78
2023/05/15 11:55:57;;;;;;;15.20;11.77;;;14.30;78.50;;;;;;5059983;28;20052;-79
2023/05/15 11:58:24;;;;;;;14.10;12.07;;;14.30;78.20;;;;;;5060574;28;20040;-78
2023/05/15 12:00:52;;;;;;;15.55;12.38;;;14.30;78.40;;;;;;5064443;28;20513;-79
2023/05/15 12:03:26;;;;;;;13.30;11.90;;;14.30;78.60;;;;;;5078527;28;20079;-78
2023/05/15 12:05:53;;;;;;;14.45;12.88;;;14.30;78.80;;;;;;5063168;28;20079;-78
2023/05/15 12:08:22;;;;;;;13.82;12.32;;;14.40;78.30;;;;;;5077457;28;20050;-79
2023/05/15 12:10:48;;;;;;;16.40;13.45;;;14.50;78.20;;;;;;5041442;28;20032;-79
2023/05/15 12:13:16;;;;;;;16.88;14.05;;;14.50;78.00;;;;;;5084620;28;20431;-78
2023/05/15 12:15:44;;;;;;;19.17;14.75;;;14.50;78.00;;;;;;5064720;28;20048;-78
2023/05/15 12:18:10;;;;;;;18.73;15.73;;;14.50;78.40;;;;;;5079719;28;20046;-78
2023/05/15 12:20:38;;;;;;;18.88;15.57;;;14.50;78.50;;;;;;5078533;28;20054;-79
2023/05/15 12:23:05;;;;;;;16.08;14.27;;;14.50;78.30;;;;;;5052579;28;20036;-77
2023/05/15 12:25:34;;;;;;;15.45;13.80;;;14.50;78.10;;;;;;5060177;28;20538;-80
2023/05/15 12:28:02;;;;;;;14.65;11.65;;;14.50;78.10;;;;;;5064779;28;20040;-80
2023/05/15 12:30:30;;;;;;;15.95;13.82;;;14.50;78.70;;;;;;5045197;28;20052;-78
2023/05/15 12:33:07;;;;;;;15.55;13.90;;;14.50;78.70;;;;;;5068841;28;20036;-79
2023/05/15 12:35:39;;;;;;;20.05;14.55;;;14.40;78.70;;;;;;5079811;28;21353;-81
2023/05/15 12:38:06;;;;;;;17.30;15.10;;;14.30;78.90;;;;;;5062598;28;20044;-77
2023/05/15 12:40:36;;;;;;;14.55;13.00;;;14.30;79.40;;;;;;5041800;28;20039;-78
2023/05/15 12:43:06;;;;;;;15.05;13.05;;;14.20;79.70;;;;;;5076422;28;20040;-79
2023/05/15 12:45:34;;;;;;;16.75;12.90;;;14.30;79.70;;;;;;5076103;28;20051;-78